Airfield :
LOGIN :

Register | Disclaimer

   EN    FR    IT 

 










Legend :    VFR   Marginal VFR   IFR   Intensive IFR   Very Intensive IFR
Visi :
Ceiling :
>= 8 km
>= 3000ft
5 to 8 km
1000 to 3000 ft
1500m to 5 km
500 to 1000 ft
800 to 1500m
200 to 500 ft
< 800m
< 200 ft
Symbols :   Thunderstorms  Fog  Heavy snow  Heavy precipitations  Wind > 20 kt
SIGMETs :     Misc.  Thunderstorms  Icing  Turbulence  Mountain Waves  Volcanic Ashes







- Airport Elevation : 776 ft
- IATA code : RMS


ETAR - Ramstein Air Base

CURRENT METAR :
  • 232156Z 00000KT 9999 SCT130 13/13 A3008 RMK AO2A VIS 1000 RWY08 VIS 2800 RWY08/26 VIS 2800 RWY09/27 SLP187 T01330133 $

EXPIRED METARs :
  • 232056Z 00000KT 9999 BKN120 14/14 A3008 RMK AO2A SLP187 60000 T01430143 51005 $
  • 231956Z 05004KT 9999 FEW080 SCT110 14/14 A3008 RMK AO2A SLP187 T01440144 $

TAF AMD TAF ETAR
Valid from the 23 at 18:00 until the 25 at 00:00 UTC


231823Z 2318/2424 VRB06KT 9000 -SHRA BKN040 QNH3005INS
TEMPO 2318/2320 9000 -TSRA BKN050CB
BECMG 2406/2407 06009KT 8000 -SHRA BKN020 QNH3003INS
TEMPO 2411/2415 8000 -TSRA BKN040CB
BECMG 2414/2415 VRB06KT 9000 -SHRA BKN035 QNH3003INS TX20/2413Z TN11/2404Z
No reported NOTAMs for that airfield.



MET'MAP, your aeronautical weather chart ! - Copyright ORBIFLY December 2007 - Disclaimer

ORBIFLY MET'MAP TEAM :

Programming & Development : Alexandra Zaïnal
Concept & Development : Baudouin d'Aumeries
Co-Development & Prog : Marc-Olivier Méhu
Technical & hardware support : Manuel Goepfert

Contact : metmap@orbifly.com




SOURCES & CREDITS :

   NOAA